sensor_id;sensor_type;location;lat;lon;timestamp;pressure;altitude;pressure_sealevel;temperature;humidity
53689;BME280;39583;54.682;30.662;2023-07-28T10:59:35;98559.50;;;20.06;89.37
53689;BME280;39583;54.682;30.662;2023-07-28T11:02:03;98562.41;;;20.37;94.47
53689;BME280;39583;54.682;30.662;2023-07-28T11:04:30;98570.31;;;20.52;94.54
53689;BME280;39583;54.682;30.662;2023-07-28T11:06:58;98571.25;;;20.70;96.57
53689;BME280;39583;54.682;30.662;2023-07-28T11:09:25;98567.59;;;20.88;96.73
53689;BME280;39583;54.682;30.662;2023-07-28T11:11:53;98563.59;;;20.95;95.81
53689;BME280;39583;54.682;30.662;2023-07-28T11:14:20;98570.03;;;21.12;94.78
53689;BME280;39583;54.682;30.662;2023-07-28T11:16:48;98561.22;;;21.38;93.88
53689;BME280;39583;54.682;30.662;2023-07-28T11:19:16;98565.16;;;21.85;94.92
53689;BME280;39583;54.682;30.662;2023-07-28T11:21:46;98567.81;;;22.38;94.76
53689;BME280;39583;54.682;30.662;2023-07-28T11:24:19;98564.00;;;22.74;91.89
53689;BME280;39583;54.682;30.662;2023-07-28T11:26:47;98570.78;;;22.77;89.16
53689;BME280;39583;54.682;30.662;2023-07-28T11:29:15;98569.16;;;22.58;82.81
53689;BME280;39583;54.682;30.662;2023-07-28T11:31:43;98579.63;;;22.65;85.71
53689;BME280;39583;54.682;30.662;2023-07-28T11:34:14;98581.94;;;22.80;83.31
53689;BME280;39583;54.682;30.662;2023-07-28T11:36:42;98569.22;;;22.84;85.66
53689;BME280;39583;54.682;30.662;2023-07-28T11:39:09;98579.38;;;23.01;82.19
53689;BME280;39583;54.682;30.662;2023-07-28T11:41:38;98584.22;;;23.04;81.90
53689;BME280;39583;54.682;30.662;2023-07-28T11:44:07;98587.13;;;22.99;82.39
53689;BME280;39583;54.682;30.662;2023-07-28T11:46:40;98587.78;;;22.87;81.44
53689;BME280;39583;54.682;30.662;2023-07-28T11:49:14;98578.41;;;22.88;83.12
53689;BME280;39583;54.682;30.662;2023-07-28T11:51:44;98583.25;;;22.91;82.05
53689;BME280;39583;54.682;30.662;2023-07-28T11:54:14;98589.72;;;22.87;81.26
53689;BME280;39583;54.682;30.662;2023-07-28T11:56:46;98592.91;;;22.80;78.91
53689;BME280;39583;54.682;30.662;2023-07-28T11:59:19;98577.41;;;22.67;79.71
53689;BME280;39583;54.682;30.662;2023-07-28T12:01:53;98582.38;;;22.65;79.44
53689;BME280;39583;54.682;30.662;2023-07-28T12:04:32;98585.47;;;22.72;79.62
53689;BME280;39583;54.682;30.662;2023-07-28T12:07:11;98572.56;;;22.73;78.32
53689;BME280;39583;54.682;30.662;2023-07-28T12:12:13;98589.72;;;22.95;75.78
53689;BME280;39583;54.682;30.662;2023-07-28T12:14:51;98582.13;;;23.01;76.25
53689;BME280;39583;54.682;30.662;2023-07-28T12:17:39;98585.53;;;23.07;78.17
53689;BME280;39583;54.682;30.662;2023-07-28T12:20:10;98576.94;;;23.17;77.71
53689;BME280;39583;54.682;30.662;2023-07-28T12:22:39;98591.19;;;23.10;77.35
53689;BME280;39583;54.682;30.662;2023-07-28T12:25:07;98601.44;;;22.53;77.04
53689;BME280;39583;54.682;30.662;2023-07-28T12:27:35;98590.94;;;22.06;79.13
53689;BME280;39583;54.682;30.662;2023-07-28T12:30:03;98593.25;;;21.91;79.38
53689;BME280;39583;54.682;30.662;2023-07-28T12:32:31;98597.03;;;22.03;79.26
53689;BME280;39583;54.682;30.662;2023-07-28T12:35:01;98592.41;;;22.13;76.79
53689;BME280;39583;54.682;30.662;2023-07-28T12:37:40;98588.75;;;22.26;76.98
53689;BME280;39583;54.682;30.662;2023-07-28T12:40:11;98593.81;;;22.50;77.04
53689;BME280;39583;54.682;30.662;2023-07-28T12:42:42;98588.84;;;22.60;75.80
53689;BME280;39583;54.682;30.662;2023-07-28T12:45:12;98585.13;;;22.65;77.14
53689;BME280;39583;54.682;30.662;2023-07-28T12:47:42;98594.34;;;22.78;77.65
53689;BME280;39583;54.682;30.662;2023-07-28T12:50:10;98603.28;;;22.83;77.57
53689;BME280;39583;54.682;30.662;2023-07-28T12:52:41;98601.81;;;22.86;74.65
53689;BME280;39583;54.682;30.662;2023-07-28T12:55:12;98599.81;;;22.60;75.56
53689;BME280;39583;54.682;30.662;2023-07-28T12:57:41;98603.97;;;22.41;74.32
53689;BME280;39583;54.682;30.662;2023-07-28T13:00:10;98589.81;;;22.07;73.84
53689;BME280;39583;54.682;30.662;2023-07-28T13:02:44;98594.53;;;22.24;75.35
53689;BME280;39583;54.682;30.662;2023-07-28T13:05:13;98580.91;;;22.50;75.23
53689;BME280;39583;54.682;30.662;2023-07-28T13:07:40;98593.06;;;22.75;74.22
53689;BME280;39583;54.682;30.662;2023-07-28T13:10:11;98598.59;;;22.84;73.65
53689;BME280;39583;54.682;30.662;2023-07-28T13:12:59;98594.06;;;22.79;74.56
53689;BME280;39583;54.682;30.662;2023-07-28T13:15:27;98594.72;;;22.85;75.80
53689;BME280;39583;54.682;30.662;2023-07-28T13:17:54;98601.25;;;22.49;75.08
53689;BME280;39583;54.682;30.662;2023-07-28T13:20:21;98596.38;;;22.37;75.38
53689;BME280;39583;54.682;30.662;2023-07-28T13:22:48;98592.00;;;22.36;75.79
53689;BME280;39583;54.682;30.662;2023-07-28T13:25:16;98597.69;;;22.49;75.58
53689;BME280;39583;54.682;30.662;2023-07-28T13:27:43;98598.03;;;22.56;75.30
53689;BME280;39583;54.682;30.662;2023-07-28T13:30:11;98600.50;;;22.66;76.23
53689;BME280;39583;54.682;30.662;2023-07-28T13:32:39;98603.56;;;22.73;74.86
53689;BME280;39583;54.682;30.662;2023-07-28T13:35:06;98601.66;;;22.91;76.92
53689;BME280;39583;54.682;30.662;2023-07-28T13:37:35;98599.56;;;23.14;76.81
53689;BME280;39583;54.682;30.662;2023-07-28T13:40:03;98600.88;;;23.25;76.50
53689;BME280;39583;54.682;30.662;2023-07-28T13:42:31;98599.06;;;23.38;77.09
53689;BME280;39583;54.682;30.662;2023-07-28T13:44:58;98596.47;;;23.50;76.98
53689;BME280;39583;54.682;30.662;2023-07-28T13:47:25;98608.31;;;23.33;74.89
53689;BME280;39583;54.682;30.662;2023-07-28T13:49:52;98609.25;;;23.37;76.02
53689;BME280;39583;54.682;30.662;2023-07-28T13:52:20;98617.34;;;23.34;74.70
53689;BME280;39583;54.682;30.662;2023-07-28T13:54:48;98615.88;;;23.45;75.85
53689;BME280;39583;54.682;30.662;2023-07-28T13:57:19;98615.38;;;23.51;75.75
53689;BME280;39583;54.682;30.662;2023-07-28T13:59:46;98606.50;;;23.72;76.61
53689;BME280;39583;54.682;30.662;2023-07-28T14:02:13;98609.88;;;23.77;75.19
53689;BME280;39583;54.682;30.662;2023-07-28T14:04:40;98624.13;;;23.71;75.24
53689;BME280;39583;54.682;30.662;2023-07-28T14:07:08;98620.09;;;23.60;74.42
53689;BME280;39583;54.682;30.662;2023-07-28T14:09:35;98618.13;;;23.69;75.01
53689;BME280;39583;54.682;30.662;2023-07-28T14:12:04;98625.75;;;23.72;74.82
53689;BME280;39583;54.682;30.662;2023-07-28T14:14:31;98611.13;;;23.89;74.61
53689;BME280;39583;54.682;30.662;2023-07-28T14:16:58;98607.75;;;23.83;74.64
53689;BME280;39583;54.682;30.662;2023-07-28T14:19:26;98610.69;;;23.69;74.79
53689;BME280;39583;54.682;30.662;2023-07-28T14:21:53;98611.34;;;23.40;72.42
53689;BME280;39583;54.682;30.662;2023-07-28T14:24:20;98617.16;;;23.39;74.03
53689;BME280;39583;54.682;30.662;2023-07-28T14:26:47;98606.66;;;23.49;74.23
53689;BME280;39583;54.682;30.662;2023-07-28T14:29:15;98614.38;;;23.56;74.10
53689;BME280;39583;54.682;30.662;2023-07-28T14:31:42;98615.75;;;23.33;74.48
53689;BME280;39583;54.682;30.662;2023-07-28T14:34:09;98612.81;;;23.29;75.58
53689;BME280;39583;54.682;30.662;2023-07-28T14:36:36;98604.91;;;23.36;75.23
53689;BME280;39583;54.682;30.662;2023-07-28T14:39:03;98607.31;;;23.29;73.36
53689;BME280;39583;54.682;30.662;2023-07-28T14:41:31;98608.94;;;23.30;74.47
53689;BME280;39583;54.682;30.662;2023-07-28T14:43:58;98603.94;;;23.32;75.14
53689;BME280;39583;54.682;30.662;2023-07-28T14:46:26;98605.84;;;23.40;74.57
53689;BME280;39583;54.682;30.662;2023-07-28T14:48:54;98606.84;;;23.36;74.28
53689;BME280;39583;54.682;30.662;2023-07-28T14:51:21;98607.97;;;23.26;73.75
53689;BME280;39583;54.682;30.662;2023-07-28T14:53:49;98607.34;;;23.20;73.53
53689;BME280;39583;54.682;30.662;2023-07-28T14:56:17;98602.97;;;23.11;73.18
53689;BME280;39583;54.682;30.662;2023-07-28T14:58:44;98601.03;;;22.94;72.92
53689;BME280;39583;54.682;30.662;2023-07-28T15:01:12;98586.47;;;22.85;73.10
53689;BME280;39583;54.682;30.662;2023-07-28T15:03:39;98593.72;;;22.81;71.48
53689;BME280;39583;54.682;30.662;2023-07-28T15:06:09;98593.06;;;22.66;69.81
53689;BME280;39583;54.682;30.662;2023-07-28T15:08:36;98605.63;;;22.59;69.50
53689;BME280;39583;54.682;30.662;2023-07-28T15:11:03;98598.03;;;22.56;69.77
53689;BME280;39583;54.682;30.662;2023-07-28T15:13:31;98595.28;;;22.56;69.16
53689;BME280;39583;54.682;30.662;2023-07-28T15:15:58;98596.44;;;22.55;68.81
53689;BME280;39583;54.682;30.662;2023-07-28T15:18:25;98600.75;;;22.47;69.10
53689;BME280;39583;54.682;30.662;2023-07-28T15:20:52;98579.41;;;22.35;68.64
53689;BME280;39583;54.682;30.662;2023-07-28T15:23:24;98601.06;;;22.46;69.11
53689;BME280;39583;54.682;30.662;2023-07-28T15:25:52;98604.66;;;22.55;68.93
53689;BME280;39583;54.682;30.662;2023-07-28T15:28:24;98589.63;;;22.44;68.03
53689;BME280;39583;54.682;30.662;2023-07-28T15:30:53;98603.84;;;22.54;68.77
53689;BME280;39583;54.682;30.662;2023-07-28T15:33:23;98603.53;;;22.56;68.53
53689;BME280;39583;54.682;30.662;2023-07-28T15:35:57;98603.22;;;22.66;69.20
53689;BME280;39583;54.682;30.662;2023-07-28T15:38:25;98605.03;;;22.79;68.77
53689;BME280;39583;54.682;30.662;2023-07-28T15:40:53;98607.16;;;22.91;67.90
53689;BME280;39583;54.682;30.662;2023-07-28T15:43:25;98610.56;;;23.05;67.70
53689;BME280;39583;54.682;30.662;2023-07-28T15:45:53;98601.97;;;23.41;66.30
53689;BME280;39583;54.682;30.662;2023-07-28T15:48:22;98602.19;;;24.00;63.40
53689;BME280;39583;54.682;30.662;2023-07-28T15:50:50;98606.25;;;24.70;61.06
53689;BME280;39583;54.682;30.662;2023-07-28T15:53:19;98601.41;;;25.51;59.65
53689;BME280;39583;54.682;30.662;2023-07-28T15:55:46;98597.81;;;26.04;57.30
53689;BME280;39583;54.682;30.662;2023-07-28T15:58:14;98599.91;;;26.44;57.55
53689;BME280;39583;54.682;30.662;2023-07-28T16:00:41;98589.41;;;26.74;56.91
53689;BME280;39583;54.682;30.662;2023-07-28T16:03:12;98599.56;;;27.22;56.09
53689;BME280;39583;54.682;30.662;2023-07-28T16:05:40;98594.56;;;27.56;55.41
53689;BME280;39583;54.682;30.662;2023-07-28T16:08:08;98604.66;;;27.92;54.01
53689;BME280;39583;54.682;30.662;2023-07-28T16:10:37;98594.97;;;28.30;54.21
53689;BME280;39583;54.682;30.662;2023-07-28T16:13:04;98593.38;;;28.79;53.30
53689;BME280;39583;54.682;30.662;2023-07-28T16:15:33;98597.53;;;29.05;52.69
53689;BME280;39583;54.682;30.662;2023-07-28T16:18:00;98586.59;;;29.31;52.01
53689;BME280;39583;54.682;30.662;2023-07-28T16:20:28;98587.84;;;29.53;51.51
53689;BME280;39583;54.682;30.662;2023-07-28T16:22:56;98596.50;;;29.71;51.87
53689;BME280;39583;54.682;30.662;2023-07-28T16:25:24;98590.97;;;29.52;50.85
53689;BME280;39583;54.682;30.662;2023-07-28T16:27:51;98594.31;;;29.42;51.35
53689;BME280;39583;54.682;30.662;2023-07-28T16:30:19;98598.56;;;29.55;51.01
53689;BME280;39583;54.682;30.662;2023-07-28T16:32:46;98591.22;;;29.85;50.76
53689;BME280;39583;54.682;30.662;2023-07-28T16:35:14;98593.91;;;29.82;49.92
53689;BME280;39583;54.682;30.662;2023-07-28T16:37:41;98595.63;;;29.67;50.55
53689;BME280;39583;54.682;30.662;2023-07-28T16:40:10;98591.13;;;29.59;50.28
53689;BME280;39583;54.682;30.662;2023-07-28T16:42:38;98591.72;;;29.49;50.73
53689;BME280;39583;54.682;30.662;2023-07-28T16:45:07;98585.13;;;29.37;50.89
53689;BME280;39583;54.682;30.662;2023-07-28T16:47:34;98583.53;;;28.82;52.04
53689;BME280;39583;54.682;30.662;2023-07-28T16:50:06;98591.22;;;27.35;54.87
53689;BME280;39583;54.682;30.662;2023-07-28T16:52:34;98586.56;;;25.76;58.73
53689;BME280;39583;54.682;30.662;2023-07-28T16:55:02;98588.59;;;24.71;62.06
53689;BME280;39583;54.682;30.662;2023-07-28T16:57:30;98595.03;;;24.08;63.72
53689;BME280;39583;54.682;30.662;2023-07-28T16:59:58;98605.84;;;23.40;66.34
53689;BME280;39583;54.682;30.662;2023-07-28T17:02:25;98592.41;;;22.78;67.51
53689;BME280;39583;54.682;30.662;2023-07-28T17:04:53;98607.53;;;22.41;69.32
53689;BME280;39583;54.682;30.662;2023-07-28T17:07:20;98599.06;;;22.20;70.60
53689;BME280;39583;54.682;30.662;2023-07-28T17:09:47;98598.59;;;21.96;71.86
53689;BME280;39583;54.682;30.662;2023-07-28T17:12:15;98604.25;;;21.68;72.88
53689;BME280;39583;54.682;30.662;2023-07-28T17:14:43;98608.13;;;21.45;73.83
53689;BME280;39583;54.682;30.662;2023-07-28T17:17:11;98609.47;;;21.25;74.29
53689;BME280;39583;54.682;30.662;2023-07-28T17:19:39;98602.06;;;20.78;75.26
53689;BME280;39583;54.682;30.662;2023-07-28T17:22:07;98604.72;;;20.26;76.64
53689;BME280;39583;54.682;30.662;2023-07-28T17:24:34;98608.56;;;19.97;77.64
53689;BME280;39583;54.682;30.662;2023-07-28T17:27:02;98608.88;;;20.10;77.59
53689;BME280;39583;54.682;30.662;2023-07-28T17:29:30;98612.91;;;20.67;75.68
53689;BME280;39583;54.682;30.662;2023-07-28T17:31:57;98608.41;;;20.99;73.52
53689;BME280;39583;54.682;30.662;2023-07-28T17:34:24;98617.59;;;21.03;73.01
53689;BME280;39583;54.682;30.662;2023-07-28T17:36:54;98610.41;;;20.43;74.12
53689;BME280;39583;54.682;30.662;2023-07-28T17:39:22;98607.91;;;19.73;76.35
53689;BME280;39583;54.682;30.662;2023-07-28T17:41:49;98621.72;;;19.11;78.45
53689;BME280;39583;54.682;30.662;2023-07-28T17:44:16;98621.06;;;18.58;80.43
53689;BME280;39583;54.682;30.662;2023-07-28T17:46:44;98622.75;;;18.11;81.98
53689;BME280;39583;54.682;30.662;2023-07-28T17:49:11;98622.75;;;18.11;81.98
53689;BME280;39583;54.682;30.662;2023-07-28T17:51:38;98626.38;;;17.38;84.98
53689;BME280;39583;54.682;30.662;2023-07-28T17:54:05;98623.63;;;17.09;86.10
53689;BME280;39583;54.682;30.662;2023-07-28T17:56:34;98636.00;;;16.87;87.21
53689;BME280;39583;54.682;30.662;2023-07-28T17:59:01;98635.81;;;16.63;88.29
53689;BME280;39583;54.682;30.662;2023-07-28T18:01:30;98644.88;;;16.43;89.10
53689;BME280;39583;54.682;30.662;2023-07-28T18:03:57;98644.66;;;16.24;89.90
53689;BME280;39583;54.682;30.662;2023-07-28T18:06:24;98648.50;;;16.08;90.90
53689;BME280;39583;54.682;30.662;2023-07-28T18:08:51;98646.94;;;15.91;91.45
53689;BME280;39583;54.682;30.662;2023-07-28T18:11:19;98648.31;;;15.69;91.97
53689;BME280;39583;54.682;30.662;2023-07-28T18:13:46;98651.78;;;15.49;92.68
53689;BME280;39583;54.682;30.662;2023-07-28T18:16:14;98652.91;;;15.38;93.88
53689;BME280;39583;54.682;30.662;2023-07-28T18:18:41;98651.25;;;15.26;94.21
53689;BME280;39583;54.682;30.662;2023-07-28T18:21:08;98663.19;;;15.15;94.75
53689;BME280;39583;54.682;30.662;2023-07-28T18:23:35;98666.41;;;15.02;95.32
53689;BME280;39583;54.682;30.662;2023-07-28T18:26:03;98667.47;;;14.86;95.94
53689;BME280;39583;54.682;30.662;2023-07-28T18:28:31;98670.41;;;14.79;96.75
53689;BME280;39583;54.682;30.662;2023-07-28T18:30:58;98675.25;;;14.67;97.11
53689;BME280;39583;54.682;30.662;2023-07-28T18:33:26;98674.38;;;14.56;97.73
53689;BME280;39583;54.682;30.662;2023-07-28T18:35:56;98670.56;;;14.47;98.15
53689;BME280;39583;54.682;30.662;2023-07-28T18:38:27;98674.81;;;14.38;98.51
53689;BME280;39583;54.682;30.662;2023-07-28T18:40:54;98667.47;;;14.28;99.07
53689;BME280;39583;54.682;30.662;2023-07-28T18:43:21;98669.28;;;14.17;99.36
53689;BME280;39583;54.682;30.662;2023-07-28T18:45:48;98668.16;;;14.08;99.73
53689;BME280;39583;54.682;30.662;2023-07-28T18:48:16;98667.84;;;14.00;100.00
